createdAt,value
2017-12-04T14:20:01.806Z,41.06
2017-12-04T14:21:10.960Z,40.97
2017-12-04T14:22:20.610Z,40.97
2017-12-04T14:23:29.557Z,41.06
2017-12-04T14:24:38.750Z,40.97
2017-12-04T14:25:47.415Z,41.06
2017-12-04T14:26:56.593Z,41.26
2017-12-04T14:28:05.513Z,41.74
2017-12-04T14:29:14.418Z,41.53
2017-12-04T14:30:23.617Z,41.72
2017-12-04T14:31:33.105Z,41.82
2017-12-04T14:32:42.081Z,41.91
2017-12-04T14:33:51.020Z,41.91
2017-12-04T14:34:59.947Z,41.82
2017-12-04T14:36:08.886Z,41.62
2017-12-04T14:37:18.337Z,41.62
2017-12-04T14:38:27.512Z,41.82
2017-12-04T14:39:37.250Z,41.91
2017-12-04T14:40:46.190Z,41.53
2017-12-04T14:41:55.111Z,41.53
2017-12-04T14:43:04.023Z,41.43
2017-12-04T14:44:13.447Z,41.33
2017-12-04T14:45:22.359Z,41.05
2017-12-04T14:46:31.075Z,41.06
2017-12-04T14:47:40.501Z,41.05
2017-12-04T14:48:49.668Z,40.97
2017-12-04T14:49:58.862Z,40.78
2017-12-04T14:51:08.565Z,40.88
2017-12-04T14:52:17.736Z,40.88
2017-12-04T14:53:26.947Z,40.88
2017-12-04T14:54:36.142Z,40.78
2017-12-04T14:55:45.324Z,40.58
2017-12-04T14:56:54.493Z,40.68
2017-12-04T14:58:03.682Z,40.68
2017-12-04T14:59:12.614Z,40.58
2017-12-04T15:00:21.561Z,40.39
2017-12-04T15:01:30.480Z,40.49
2017-12-04T15:02:39.398Z,40.39
2017-12-04T15:03:48.575Z,40.58
2017-12-04T15:04:57.773Z,40.49
2017-12-04T15:06:07.223Z,40.49
2017-12-04T15:07:16.412Z,40.49
2017-12-04T15:08:25.587Z,40.51
2017-12-04T15:09:34.514Z,40.51
2017-12-04T15:10:43.477Z,40.39
2017-12-04T15:11:53.187Z,40.3
2017-12-04T15:13:01.871Z,40.51
2017-12-04T15:14:11.308Z,40.51
2017-12-04T15:15:20.482Z,40.51
2017-12-04T15:16:29.393Z,40.31
2017-12-04T15:17:38.840Z,40.7
2017-12-04T15:18:47.759Z,40.51
2017-12-04T15:19:57.204Z,40.31
2017-12-04T15:21:05.863Z,40.7
2017-12-04T15:22:15.316Z,40.31
2017-12-04T15:23:24.518Z,40.61
2017-12-04T15:24:34.029Z,40.41
2017-12-04T15:25:42.681Z,40.7
2017-12-04T15:26:51.336Z,40.68
2017-12-04T15:28:00.501Z,40.7
2017-12-04T15:29:09.732Z,40.61
2017-12-04T15:30:18.668Z,40.61
2017-12-04T15:31:27.847Z,40.7
2017-12-04T15:32:37.018Z,40.61
2017-12-04T15:33:45.951Z,40.61
2017-12-04T15:34:55.218Z,40.7
2017-12-04T15:36:04.680Z,40.7
2017-12-04T15:37:13.623Z,40.7
2017-12-04T15:38:22.529Z,40.7
2017-12-04T15:39:31.716Z,40.61
2017-12-04T15:40:40.885Z,40.7
2017-12-04T15:41:49.613Z,40.61
2017-12-04T15:42:58.555Z,40.51
2017-12-04T15:44:07.796Z,40.31
2017-12-04T15:45:16.713Z,40.22
2017-12-04T15:46:25.367Z,40.22
2017-12-04T15:47:35.056Z,40.61
2017-12-04T15:48:44.232Z,40.31
2017-12-04T15:49:53.178Z,40.31
2017-12-04T15:51:01.898Z,40.61
2017-12-04T15:52:10.820Z,40.31
2017-12-04T15:53:20.031Z,40.61
2017-12-04T15:54:28.988Z,40.7
2017-12-04T15:55:38.195Z,40.51
2017-12-04T15:56:47.383Z,40.61
2017-12-04T15:57:56.070Z,40.61
2017-12-04T15:59:04.748Z,40.7
2017-12-04T16:00:13.947Z,40.61
2017-12-04T16:01:23.409Z,40.61
2017-12-04T16:02:32.618Z,40.61
2017-12-04T16:03:42.604Z,40.12
2017-12-04T16:04:52.031Z,40.7
2017-12-04T16:06:00.696Z,40.22
2017-12-04T16:07:10.143Z,40.61
2017-12-04T16:08:19.611Z,40.22
2017-12-04T16:09:28.509Z,40.61
2017-12-04T16:10:37.693Z,40.61
2017-12-04T16:11:46.880Z,40.22
2017-12-04T16:12:55.558Z,40.61
2017-12-04T16:14:04.476Z,40.22
2017-12-04T16:15:13.391Z,40.61
2017-12-04T16:16:22.576Z,40.22
2017-12-04T16:17:31.273Z,40.61
2017-12-04T16:18:40.467Z,40.61
2017-12-04T16:19:49.166Z,40.51
2017-12-04T16:20:58.088Z,40.7
2017-12-04T16:22:07.803Z,40.61
2017-12-04T16:23:16.492Z,40.61
2017-12-04T16:24:25.414Z,40.22
2017-12-04T16:25:34.909Z,40.51
2017-12-04T16:26:43.843Z,40.61
2017-12-04T16:27:52.793Z,40.61
2017-12-04T16:29:01.731Z,40.22
2017-12-04T16:30:10.911Z,40.61
2017-12-04T16:31:20.359Z,40.61
2017-12-04T16:32:29.310Z,40.31
2017-12-04T16:33:38.233Z,40.61
2017-12-04T16:34:47.959Z,40.7
2017-12-04T16:35:56.670Z,40.61
2017-12-04T16:37:05.633Z,40.7
2017-12-04T16:38:14.556Z,40.31
2017-12-04T16:39:24.014Z,40.7
2017-12-04T16:40:32.940Z,40.61
2017-12-04T16:41:41.609Z,40.61
2017-12-04T16:42:50.796Z,40.61
2017-12-04T16:43:59.991Z,40.51
2017-12-04T16:45:08.921Z,40.61
2017-12-04T16:46:18.394Z,40.22
2017-12-04T16:47:27.037Z,40.22
2017-12-04T16:48:35.731Z,40.61
2017-12-04T16:49:45.228Z,40.51
2017-12-04T16:50:54.239Z,40.51
2017-12-04T16:52:02.893Z,40.61
2017-12-04T16:53:12.845Z,40.61
2017-12-04T16:54:21.778Z,40.7
2017-12-04T16:55:30.977Z,40.61
2017-12-04T16:56:40.690Z,40.7
2017-12-04T16:57:49.625Z,40.61
2017-12-04T16:58:58.310Z,40.7
2017-12-04T17:00:07.476Z,40.61
2017-12-04T17:01:16.655Z,40.7
2017-12-04T17:02:25.606Z,40.7
2017-12-04T17:03:34.815Z,40.7
2017-12-04T17:04:44.044Z,40.61
2017-12-04T17:05:53.240Z,40.7
2017-12-04T17:07:02.435Z,40.41
2017-12-04T17:08:11.647Z,40.7
2017-12-04T17:09:20.606Z,40.7
2017-12-04T17:10:29.301Z,40.61
2017-12-04T17:11:38.240Z,40.7
2017-12-04T17:12:47.216Z,40.61
2017-12-04T17:13:56.147Z,40.7
2017-12-04T17:15:05.051Z,40.31
2017-12-04T17:16:14.244Z,40.41
2017-12-04T17:17:23.448Z,40.51
2017-12-04T17:18:32.383Z,40.41
2017-12-04T17:19:41.058Z,40.51
2017-12-04T17:20:49.983Z,40.51
2017-12-04T17:21:58.897Z,40.51
2017-12-04T17:23:08.344Z,40.41
2017-12-04T17:24:18.241Z,40.41
2017-12-04T17:25:27.937Z,40.41
2017-12-04T17:26:36.869Z,40.41
2017-12-04T17:27:46.401Z,40.41
2017-12-04T17:28:56.027Z,40.41
2017-12-04T17:30:04.938Z,40.61
2017-12-04T17:31:14.497Z,40.51
2017-12-04T17:32:23.524Z,40.61
2017-12-04T17:33:32.716Z,40.41
2017-12-04T17:34:41.960Z,40.31
2017-12-04T17:35:51.674Z,40.61
2017-12-04T17:37:01.159Z,40.51
2017-12-04T17:38:10.280Z,40.31
2017-12-04T17:39:20.658Z,40.61
2017-12-04T17:40:30.100Z,40.51
2017-12-04T17:41:39.096Z,40.51
2017-12-04T17:42:47.871Z,40.51
2017-12-04T17:43:57.322Z,40.51
2017-12-04T17:45:06.779Z,40.51
2017-12-04T17:46:15.469Z,40.51
2017-12-04T17:47:24.473Z,40.51
2017-12-04T17:48:33.412Z,40.51
2017-12-04T17:49:42.338Z,40.51
2017-12-04T17:50:51.258Z,40.51
2017-12-04T17:52:00.200Z,40.41
2017-12-04T17:53:08.882Z,40.41
2017-12-04T17:54:18.085Z,40.51
2017-12-04T17:55:27.521Z,40.61
2017-12-04T17:56:36.490Z,40.51
2017-12-04T17:57:45.654Z,40.41
2017-12-04T17:58:54.858Z,40.51
2017-12-04T18:00:04.324Z,40.51
2017-12-04T18:01:13.519Z,40.41
2017-12-04T18:02:22.485Z,40.41
2017-12-04T18:03:31.969Z,40.31
2017-12-04T18:04:40.980Z,40.41
2017-12-04T18:05:50.467Z,40.41
2017-12-04T18:06:59.714Z,40.41
2017-12-04T18:08:09.191Z,40.41
2017-12-04T18:09:18.413Z,40.51
2017-12-04T18:10:27.867Z,40.41
2017-12-04T18:11:37.075Z,40.51
2017-12-04T18:12:46.007Z,40.41
2017-12-04T18:13:54.920Z,40.41
2017-12-04T18:15:03.842Z,40.41
2017-12-04T18:16:12.755Z,40.51
2017-12-04T18:17:22.203Z,40.61
2017-12-04T18:18:31.207Z,40.51
2017-12-04T18:19:40.525Z,40.41
2017-12-04T18:20:50.292Z,40.61
2017-12-04T18:22:00.055Z,40.41
2017-12-04T18:23:10.488Z,40.41
2017-12-04T18:24:20.262Z,40.31
2017-12-04T18:25:29.452Z,40.51
2017-12-04T18:26:38.650Z,40.41
2017-12-04T18:27:47.340Z,40.51
2017-12-04T18:28:56.101Z,40.51
2017-12-04T18:30:05.047Z,40.51
2017-12-04T18:31:14.235Z,40.51
2017-12-04T18:32:23.193Z,40.51
2017-12-04T18:33:31.880Z,40.41
2017-12-04T18:34:41.096Z,40.51
2017-12-04T18:35:51.370Z,40.51
2017-12-04T18:37:00.375Z,40.7
2017-12-04T18:38:09.845Z,40.51
2017-12-04T18:39:19.803Z,40.41
2017-12-04T18:40:29.491Z,40.51
2017-12-04T18:41:38.574Z,40.51
2017-12-04T18:42:47.254Z,40.61
2017-12-04T18:43:55.948Z,40.51
2017-12-04T18:45:04.998Z,40.61
2017-12-04T18:46:14.453Z,40.61
2017-12-04T18:47:23.902Z,40.51
2017-12-04T18:48:32.556Z,40.51
2017-12-04T18:49:41.740Z,40.51
2017-12-04T18:50:50.493Z,40.51
2017-12-04T18:51:59.463Z,40.61
2017-12-04T18:53:08.430Z,40.61
2017-12-04T18:54:17.643Z,40.51
2017-12-04T18:55:26.560Z,40.51
2017-12-04T18:56:36.070Z,40.61
2017-12-04T18:57:45.257Z,40.41
2017-12-04T18:58:54.531Z,40.61
2017-12-04T19:00:03.737Z,40.51
2017-12-04T19:01:12.939Z,40.51
2017-12-04T19:02:22.133Z,40.61
2017-12-04T19:03:31.108Z,40.51
2017-12-04T19:04:40.067Z,40.51
2017-12-04T19:05:48.881Z,40.51
2017-12-04T19:06:59.006Z,40.51
2017-12-04T19:08:08.227Z,40.51
2017-12-04T19:09:16.939Z,40.41
2017-12-04T19:10:26.147Z,40.61
2017-12-04T19:11:35.341Z,40.61
2017-12-04T19:12:44.645Z,40.51
2017-12-04T19:13:53.568Z,40.51
2017-12-04T19:15:03.079Z,40.51
2017-12-04T19:16:12.010Z,40.51
2017-12-04T19:17:21.450Z,40.61
2017-12-04T19:18:30.121Z,40.61
2017-12-04T19:19:39.471Z,40.51
2017-12-04T19:20:48.777Z,40.41
2017-12-04T19:21:58.218Z,40.51
2017-12-04T19:23:07.197Z,40.51
2017-12-04T19:24:16.197Z,40.41
2017-12-04T19:25:25.385Z,40.41
2017-12-04T19:26:34.871Z,40.51
2017-12-04T19:27:44.122Z,40.51
2017-12-04T19:28:53.710Z,40.51
2017-12-04T19:30:02.626Z,40.41
2017-12-04T19:31:11.801Z,40.51
2017-12-04T19:32:20.741Z,40.51
2017-12-04T19:33:30.441Z,40.51
2017-12-04T19:34:39.935Z,40.7
2017-12-04T19:35:49.144Z,40.61
2017-12-04T19:36:58.113Z,40.61
2017-12-04T19:38:07.543Z,40.61
2017-12-04T19:39:16.997Z,40.61
2017-12-04T19:40:26.206Z,40.61
2017-12-04T19:41:35.387Z,40.61
2017-12-04T19:42:44.309Z,40.51
2017-12-04T19:43:52.968Z,40.51
2017-12-04T19:45:02.412Z,40.61
2017-12-04T19:46:11.883Z,40.61
2017-12-04T19:47:21.048Z,40.41
2017-12-04T19:48:30.243Z,40.7
2017-12-04T19:49:39.699Z,40.41
2017-12-04T19:50:48.606Z,40.61
2017-12-04T19:51:57.529Z,40.61
2017-12-04T19:53:06.229Z,40.61
2017-12-04T19:54:15.656Z,40.51
2017-12-04T19:55:24.580Z,40.7
2017-12-04T19:56:33.801Z,40.61
2017-12-04T19:57:44.525Z,40.61
2017-12-04T19:58:53.745Z,40.7
2017-12-04T20:00:02.928Z,40.61
2017-12-04T20:01:12.107Z,40.61
2017-12-04T20:02:21.038Z,40.61
2017-12-04T20:03:30.001Z,40.61
2017-12-04T20:04:38.954Z,40.51
2017-12-04T20:05:47.625Z,40.8
2017-12-04T20:06:56.586Z,40.8
2017-12-04T20:08:05.532Z,40.41
2017-12-04T20:09:14.248Z,40.89
2017-12-04T20:10:23.715Z,40.89
2017-12-04T20:11:33.162Z,40.7
2017-12-04T20:12:42.126Z,40.8
2017-12-04T20:13:51.051Z,40.89
2017-12-04T20:15:00.513Z,40.7
2017-12-04T20:16:09.705Z,40.8
2017-12-04T20:17:18.870Z,40.8
2017-12-04T20:18:28.052Z,40.89
2017-12-04T20:19:37.223Z,41.08
2017-12-04T20:20:45.897Z,40.89
2017-12-04T20:21:55.317Z,40.89
2017-12-04T20:23:04.833Z,40.61
2017-12-04T20:24:14.004Z,40.8
2017-12-04T20:25:23.175Z,40.7
2017-12-04T20:26:31.836Z,40.7
2017-12-04T20:27:40.750Z,40.89
2017-12-04T20:28:49.692Z,40.89
2017-12-04T20:29:58.886Z,40.99
2017-12-04T20:31:08.072Z,40.7
2017-12-04T20:32:17.292Z,40.8
2017-12-04T20:33:26.724Z,40.89
2017-12-04T20:34:35.921Z,40.8
2017-12-04T20:35:45.133Z,40.89
2017-12-04T20:36:54.588Z,40.7
2017-12-04T20:38:03.805Z,40.7
2017-12-04T20:39:12.751Z,40.7
2017-12-04T20:40:21.649Z,40.89
2017-12-04T20:41:31.112Z,40.89
2017-12-04T20:42:40.645Z,40.89
2017-12-04T20:43:49.344Z,40.89
2017-12-04T20:44:58.300Z,40.8
2017-12-04T20:46:07.495Z,40.99
2017-12-04T20:47:17.501Z,40.89
2017-12-04T20:48:26.948Z,40.89
2017-12-04T20:49:35.885Z,40.8
2017-12-04T20:50:45.336Z,40.8
2017-12-04T20:51:55.003Z,40.99
2017-12-04T20:53:04.298Z,40.89
2017-12-04T20:54:13.143Z,40.89
2017-12-04T20:55:23.238Z,40.99
2017-12-04T20:56:32.717Z,40.99
2017-12-04T20:57:42.020Z,40.89
2017-12-04T20:58:51.708Z,41.08
2017-12-04T21:00:01.171Z,40.99
2017-12-04T21:01:10.513Z,41.08
2017-12-04T21:02:19.444Z,40.99
2017-12-04T21:03:28.303Z,40.99
2017-12-04T21:04:38.046Z,40.8
2017-12-04T21:05:47.800Z,40.99
2017-12-04T21:06:57.565Z,40.99
2017-12-04T21:08:07.060Z,40.89
2017-12-04T21:09:16.720Z,40.89
2017-12-04T21:10:26.836Z,40.89
2017-12-04T21:11:36.605Z,41.08
2017-12-04T21:12:46.306Z,41.08
2017-12-04T21:13:55.301Z,40.99
2017-12-04T21:15:04.337Z,40.99
2017-12-04T21:16:13.023Z,41.08
2017-12-04T21:17:21.946Z,40.99
2017-12-04T21:18:30.863Z,40.99
2017-12-04T21:19:39.804Z,41.08
2017-12-04T21:20:49.266Z,40.99
2017-12-04T21:21:58.468Z,41.08
2017-12-04T21:23:07.638Z,40.99
2017-12-04T21:24:16.810Z,40.99
2017-12-04T21:25:25.752Z,41.18
2017-12-04T21:26:35.237Z,41.18
2017-12-04T21:27:44.402Z,41.08
2017-12-04T21:28:53.581Z,41.18
2017-12-04T21:30:02.768Z,41.18
2017-12-04T21:31:11.971Z,41.18
2017-12-04T21:32:20.646Z,41.08
2017-12-04T21:33:29.560Z,41.08
2017-12-04T21:34:39.330Z,41.18
2017-12-04T21:35:48.253Z,41.08
2017-12-04T21:36:56.924Z,41.28
2017-12-04T21:38:06.099Z,41.28
2017-12-04T21:39:15.017Z,41.08
2017-12-04T21:40:24.465Z,41.28
2017-12-04T21:41:33.646Z,41.28
2017-12-04T21:42:42.817Z,41.08
2017-12-04T21:43:52.254Z,41.18
2017-12-04T21:45:01.174Z,41.08
2017-12-04T21:46:10.358Z,41.28
2017-12-04T21:47:19.022Z,41.28
2017-12-04T21:48:27.935Z,41.18
2017-12-04T21:49:36.586Z,41.18
2017-12-04T21:50:45.765Z,41.08
2017-12-04T21:51:54.678Z,41.08
2017-12-04T21:53:03.632Z,41.18
2017-12-04T21:54:12.793Z,41.38
2017-12-04T21:55:21.696Z,41.08
2017-12-04T21:56:30.623Z,41.18
2017-12-04T21:57:39.544Z,41.18
2017-12-04T21:58:48.444Z,41.18
2017-12-04T21:59:57.618Z,41.28
2017-12-04T22:01:07.085Z,41.18
2017-12-04T22:02:16.295Z,41.18
2017-12-04T22:03:25.196Z,41.28
2017-12-04T22:04:34.113Z,41.28
2017-12-04T22:05:43.302Z,41.18
2017-12-04T22:06:52.503Z,41.28
2017-12-04T22:08:01.172Z,41.08
2017-12-04T22:09:10.619Z,41.38
2017-12-04T22:10:19.536Z,41.38
2017-12-04T22:11:29.236Z,41.38
2017-12-04T22:12:38.140Z,41.38
2017-12-04T22:13:47.042Z,41.08
2017-12-04T22:14:55.946Z,41.08
2017-12-04T22:16:05.116Z,41.38
2017-12-04T22:17:14.306Z,41.47
2017-12-04T22:18:23.781Z,41.38
2017-12-04T22:19:33.205Z,41.18
2017-12-04T22:20:42.622Z,41.66
2017-12-04T22:21:51.548Z,41.38
2017-12-04T22:23:00.472Z,41.28
2017-12-04T22:24:10.188Z,41.28
2017-12-04T22:25:19.646Z,41.28
2017-12-04T22:26:28.809Z,41.18
2017-12-04T22:27:37.782Z,41.47
2017-12-04T22:28:46.695Z,41.28
2017-12-04T22:29:56.130Z,41.38
2017-12-04T22:31:05.051Z,41.47
2017-12-04T22:32:14.224Z,41.76
2017-12-04T22:33:23.418Z,41.86
2017-12-04T22:34:32.394Z,41.47
2017-12-04T22:35:41.042Z,41.76
2017-12-04T22:36:50.235Z,41.47
2017-12-04T22:37:59.158Z,41.56
2017-12-04T22:39:08.594Z,41.56
2017-12-04T22:40:17.505Z,41.47
2017-12-04T22:41:26.169Z,41.47
2017-12-04T22:42:35.095Z,41.47
2017-12-04T22:43:44.283Z,41.47
2017-12-04T22:44:53.237Z,41.86
2017-12-04T22:46:02.147Z,41.47
2017-12-04T22:47:11.341Z,41.47
2017-12-04T22:48:20.529Z,41.56
2017-12-04T22:49:29.187Z,41.95
2017-12-04T22:50:38.694Z,41.76
2017-12-04T22:51:47.351Z,41.86
2017-12-04T22:52:56.268Z,41.76
2017-12-04T22:54:05.438Z,41.76
2017-12-04T22:55:14.352Z,41.76
2017-12-04T22:56:23.542Z,41.56
2017-12-04T22:57:32.449Z,41.66
2017-12-04T22:58:41.656Z,41.76
2017-12-04T22:59:50.580Z,41.66
2017-12-04T23:00:59.784Z,41.56
2017-12-04T23:02:08.726Z,41.56
2017-12-04T23:03:18.410Z,41.56
2017-12-04T23:04:27.070Z,41.56
2017-12-04T23:05:36.253Z,41.56
2017-12-04T23:06:45.690Z,41.56
2017-12-04T23:07:55.125Z,41.56
2017-12-04T23:09:04.557Z,41.56
2017-12-04T23:10:13.742Z,41.47
2017-12-04T23:11:23.181Z,41.56
2017-12-04T23:12:32.357Z,41.47
2017-12-04T23:13:41.867Z,41.47
2017-12-04T23:14:50.805Z,41.47
2017-12-04T23:15:59.720Z,41.66
2017-12-04T23:17:08.696Z,41.56
2017-12-04T23:18:17.344Z,41.56
2017-12-04T23:19:26.509Z,41.56
2017-12-04T23:20:35.420Z,41.56
2017-12-04T23:21:44.074Z,41.76
2017-12-04T23:22:53.252Z,41.55
2017-12-04T23:24:02.436Z,41.76
2017-12-04T23:25:11.608Z,41.66
2017-12-04T23:26:20.919Z,41.56
2017-12-04T23:27:30.370Z,41.56
2017-12-04T23:28:39.567Z,41.74
2017-12-04T23:29:48.739Z,41.76
2017-12-04T23:30:57.667Z,41.76
2017-12-04T23:32:06.845Z,41.66
2017-12-04T23:33:16.298Z,41.56
2017-12-04T23:34:25.090Z,41.76
2017-12-04T23:35:35.239Z,41.56
2017-12-04T23:36:45.044Z,41.86
2017-12-04T23:37:54.588Z,41.86
2017-12-04T23:39:03.762Z,41.56
2017-12-04T23:40:13.682Z,41.86
2017-12-04T23:41:23.228Z,41.95
2017-12-04T23:42:32.673Z,41.93
2017-12-04T23:43:41.854Z,41.64
2017-12-04T23:44:51.022Z,41.64
2017-12-04T23:46:00.455Z,41.83
2017-12-04T23:47:09.353Z,41.86
2017-12-04T23:48:19.037Z,41.66
2017-12-04T23:49:28.204Z,41.86
2017-12-04T23:50:37.150Z,41.93
2017-12-04T23:51:46.332Z,41.66
2017-12-04T23:52:54.985Z,41.66
2017-12-04T23:54:04.185Z,41.95
2017-12-04T23:55:13.375Z,41.64
2017-12-04T23:56:22.562Z,41.95
2017-12-04T23:57:31.238Z,41.86
2017-12-04T23:58:40.152Z,41.55
2017-12-04T23:59:49.061Z,41.56
